Ferry Kyoto II — JI3701 — position and weather

sailwx.info

Track history (hours):
 
Tides and Currents Weather Stations Pressure Air Temp Water Temp Dewpoint Dewpoint Depression Visibility Wind Speed Wind Dir Waves Ship Positions

Ferry Kyoto II

Last reported at 2017-Apr-24 09:49 UTC. Time now 2017-Apr-25 06:37 UTC.
Position N 34°32' E 134°43'.

Length 167 m; draft 5.9 m.

Type: Ship. MMSI: 431301641.

Date/timePositionNaut miles runAvg speedWind from/ knotsBaromVisibWave heightAir tempDewpointWater temp
2017-Apr-24 09:49N 34°32' E 134°43'823.5
2017-Apr-24 09:30N 34°35' E 134°52'1122.5
2017-Apr-24 09:00N 34°36' E 135°05'1121.4
2017-Apr-24 08:30N 34°37' E 135°18'612.1
2017-Apr-24 08:00N 34°37' E 135°26'0 0.0
2017-Apr-24 07:30N 34°37' E 135°26'0 0.0
2017-Apr-24 06:54N 34°37' E 135°26'0 0.0
2017-Apr-24 06:30N 34°37' E 135°26'0 0.0
2017-Apr-24 06:00N 34°37' E 135°26'0 0.0
2017-Apr-24 05:30N 34°37' E 135°26'0 0.0
2017-Apr-24 05:00N 34°37' E 135°26'0 0.0
2017-Apr-24 04:30N 34°37' E 135°26'0 0.0
2017-Apr-24 04:00N 34°37' E 135°26'0 0.0
2017-Apr-24 03:24N 34°37' E 135°26'0 0.0
2017-Apr-24 02:48N 34°37' E 135°26'0 0.0
2017-Apr-24 02:30N 34°37' E 135°26'0 0.0
2017-Apr-24 01:48N 34°37' E 135°26'0 0.0
2017-Apr-24 01:30N 34°37' E 135°26'0 0.0
2017-Apr-24 00:42N 34°37' E 135°26'0 0.0
2017-Apr-24 00:24N 34°37' E 135°26'0 0.0
2017-Apr-24 00:00N 34°37' E 135°26'0 0.0
2017-Apr-23 23:24N 34°37' E 135°26'0 0.0
2017-Apr-23 23:00N 34°37' E 135°26'0 0.0
2017-Apr-23 22:30N 34°37' E 135°26'0 0.0
2017-Apr-23 22:00N 34°37' E 135°26'0 0.0
2017-Apr-23 21:18N 34°37' E 135°26'0 0.0
2017-Apr-23 21:00N 34°37' E 135°26'0 0.0
2017-Apr-23 20:30N 34°37' E 135°26'4 7.6
2017-Apr-23 20:00N 34°37' E 135°21'918.9
2017-Apr-23 19:30N 34°35' E 135°10'918.5
2017-Apr-23 19:00N 34°37' E 134°59'1019.4
2017-Apr-23 18:30N 34°33' E 134°48'5 0.1
2017-Apr-22 09:52N 34°32' E 134°43'923.4
2017-Apr-22 09:30N 34°35' E 134°52'1122.1
2017-Apr-22 09:00N 34°36' E 135°06'1121.4
2017-Apr-22 08:29N 34°37' E 135°19'5 9.4
2017-Apr-22 07:55N 34°37' E 135°26'0 0.0
2017-Apr-22 07:07N 34°37' E 135°26'0 0.0
2017-Apr-22 06:49N 34°37' E 135°26'0 0.0
2017-Apr-22 06:25N 34°37' E 135°26'0 0.0
2017-Apr-22 05:49N 34°37' E 135°26'0 0.0
2017-Apr-22 05:25N 34°37' E 135°26'0 0.0
2017-Apr-22 04:55N 34°37' E 135°26'0 0.0
2017-Apr-22 04:25N 34°37' E 135°26'0 0.0
2017-Apr-22 03:55N 34°37' E 135°26'0 0.0
2017-Apr-22 03:19N 34°37' E 135°26'0 0.0
2017-Apr-22 02:55N 34°37' E 135°26'0 0.0
2017-Apr-22 02:25N 34°37' E 135°26'0 0.0
2017-Apr-22 01:55N 34°37' E 135°26'0 0.0
2017-Apr-22 01:25N 34°37' E 135°26'0 0.0
2017-Apr-22 00:55N 34°37' E 135°26'0 0.0
2017-Apr-22 00:25N 34°37' E 135°26'0 0.0
2017-Apr-21 23:55N 34°37' E 135°26'0 0.0
2017-Apr-21 23:25N 34°37' E 135°26'0 0.0
2017-Apr-21 22:31N 34°37' E 135°26'0 0.0
2017-Apr-21 22:13N 34°37' E 135°26'0 0.0
2017-Apr-21 21:25N 34°37' E 135°26'0 0.0
2017-Apr-21 20:49N 34°37' E 135°26'0 0.0
2017-Apr-21 20:30N 34°37' E 135°26'4 7.6
2017-Apr-21 20:00N 34°37' E 135°21'918.4
2017-Apr-21 19:30N 34°35' E 135°10'918.7
2017-Apr-21 19:00N 34°37' E 134°59'1121.4
2017-Apr-21 18:30N 34°33' E 134°48'3 0.1
2017-Apr-20 10:10N 34°32' E 134°44'422.5
2017-Apr-20 10:00N 34°34' E 134°49'1121.8
2017-Apr-20 09:30N 34°37' E 135°01'1121.0
2017-Apr-20 09:00N 34°36' E 135°14'918.0
2017-Apr-20 08:30N 34°37' E 135°25'1 1.4
2017-Apr-20 07:49N 34°37' E 135°26'0 0.0
2017-Apr-20 07:19N 34°37' E 135°26'0 0.0
2017-Apr-20 06:55N 34°37' E 135°26'0 0.0
2017-Apr-20 06:25N 34°37' E 135°26'0 0.0
2017-Apr-20 05:55N 34°37' E 135°26'0 0.0
2017-Apr-20 05:25N 34°37' E 135°26'0 0.0
2017-Apr-20 04:55N 34°37' E 135°26'0 0.0
2017-Apr-20 04:25N 34°37' E 135°26'0 0.0
2017-Apr-20 03:49N 34°37' E 135°26'0 0.0
2017-Apr-20 03:25N 34°37' E 135°26'0 0.0
2017-Apr-20 02:49N 34°37' E 135°26'0 0.0
2017-Apr-20 02:25N 34°37' E 135°26'0 0.0
2017-Apr-20 01:55N 34°37' E 135°26'0 0.0
2017-Apr-20 01:19N 34°37' E 135°26'0 0.0
2017-Apr-20 00:55N 34°37' E 135°26'0 0.0
2017-Apr-20 00:25N 34°37' E 135°26'0 0.0
2017-Apr-19 23:49N 34°37' E 135°26'0 0.0
2017-Apr-19 23:25N 34°37' E 135°26'0 0.0
2017-Apr-19 22:55N 34°37' E 135°26'0 0.0
2017-Apr-19 22:19N 34°37' E 135°26'0 0.0
2017-Apr-19 21:55N 34°37' E 135°26'0 0.0
2017-Apr-19 21:25N 34°37' E 135°26'0 0.0
2017-Apr-19 20:55N 34°37' E 135°26'0 0.0
2017-Apr-19 20:30N 34°37' E 135°26'510.4
2017-Apr-19 20:00N 34°36' E 135°20'1020.7
2017-Apr-19 19:30N 34°35' E 135°07'918.5
2017-Apr-19 19:00N 34°35' E 134°56'9 0.3
2017-Apr-18 09:59N 34°33' E 134°45'1020.6
2017-Apr-18 09:30N 34°37' E 134°56'1019.4
2017-Apr-18 09:01N 34°36' E 135°08'1020.6
2017-Apr-18 08:30N 34°37' E 135°20'5 7.6
2017-Apr-18 07:54N 34°37' E 135°26'0 0.0
2017-Apr-18 07:30N 34°37' E 135°26'0 0.0
2017-Apr-18 07:00N 34°37' E 135°26'0 0.0
2017-Apr-18 06:30N 34°37' E 135°26'0 0.0
2017-Apr-18 06:00N 34°37' E 135°26'0 0.0
2017-Apr-18 05:24N 34°37' E 135°26'0 0.0
2017-Apr-18 05:00N 34°37' E 135°26'0 0.0
2017-Apr-18 04:30N 34°37' E 135°26'0 0.0
2017-Apr-18 03:54N 34°37' E 135°26'0 0.0
2017-Apr-18 03:30N 34°37' E 135°26'0 0.0
2017-Apr-18 02:48N 34°37' E 135°26'0 0.0
2017-Apr-18 02:18N 34°37' E 135°26'0 0.0
2017-Apr-18 02:00N 34°37' E 135°26'0 0.0
2017-Apr-18 01:30N 34°37' E 135°26'0 0.0
2017-Apr-18 01:00N 34°37' E 135°26'0 0.0
2017-Apr-18 00:24N 34°37' E 135°26'0 0.0
2017-Apr-18 00:00N 34°37' E 135°26'0 0.0
2017-Apr-17 23:30N 34°37' E 135°26'0 0.0
2017-Apr-17 23:00N 34°37' E 135°26'0 0.0
2017-Apr-17 22:24N 34°37' E 135°26'0 0.0
2017-Apr-17 21:54N 34°37' E 135°26'0 0.0
2017-Apr-17 21:24N 34°37' E 135°26'0 0.0
2017-Apr-17 21:00N 34°37' E 135°26'0 0.0
2017-Apr-17 20:30N 34°37' E 135°26'4 7.8
2017-Apr-17 20:00N 34°37' E 135°21'1020.2
2017-Apr-17 19:30N 34°35' E 135°09'1020.0
2017-Apr-17 19:00N 34°36' E 134°57'6 0.2
2017-Apr-16 09:45N 34°34' E 134°50'521.3
2017-Apr-16 09:30N 34°36' E 134°56'917.4
2017-Apr-16 09:00N 34°36' E 135°06'1121.1
2017-Apr-16 08:30N 34°37' E 135°19'610.7
2017-Apr-16 07:58N 34°37' E 135°26'0 0.0
2017-Apr-16 07:28N 34°37' E 135°26'0 0.0
2017-Apr-16 06:58N 34°37' E 135°26'0 0.0
2017-Apr-16 06:28N 34°37' E 135°26'0 0.0
2017-Apr-16 05:58N 34°37' E 135°26'0 0.0
2017-Apr-16 05:28N 34°37' E 135°26'0 0.0
2017-Apr-16 04:58N 34°37' E 135°26'0 0.0
2017-Apr-16 04:28N 34°37' E 135°26'0 0.0
2017-Apr-16 03:58N 34°37' E 135°26'0 0.0
2017-Apr-16 03:28N 34°37' E 135°26'0 0.0
2017-Apr-16 02:58N 34°37' E 135°26'0 0.0
2017-Apr-16 02:28N 34°37' E 135°26'0 0.0
2017-Apr-16 01:58N 34°37' E 135°26'0 0.0
2017-Apr-16 01:28N 34°37' E 135°26'0 0.0
2017-Apr-16 00:58N 34°37' E 135°26'0 0.0
2017-Apr-16 00:16N 34°37' E 135°26'0 0.0
2017-Apr-15 23:58N 34°37' E 135°26'0 0.0
2017-Apr-15 23:28N 34°37' E 135°26'0 0.0
2017-Apr-15 22:58N 34°37' E 135°26'0 0.0
2017-Apr-15 22:28N 34°37' E 135°26'0 0.0
2017-Apr-15 21:58N 34°37' E 135°26'0 0.0
2017-Apr-15 21:28N 34°37' E 135°26'0 0.0
2017-Apr-15 20:58N 34°37' E 135°26'0 0.0
2017-Apr-15 20:23N 34°37' E 135°26'4 9.8
2017-Apr-15 20:00N 34°37' E 135°21'1019.2
2017-Apr-15 19:30N 34°35' E 135°10'1019.8
2017-Apr-15 19:00N 34°37' E 134°58'12 0.4
2017-Apr-14 09:54N 34°32' E 134°45'  
Track history (hours):
 
Tides and Currents Weather Stations Pressure Air Temp Water Temp Dewpoint Dewpoint Depression Visibility Wind Speed Wind Dir Waves Ship Positions

Ferry Kyoto II

Last reported at 2017-Apr-24 09:49 UTC. Time now 2017-Apr-25 06:37 UTC.
Position N 34°32' E 134°43'.

Length 167 m; draft 5.9 m.

Type: Ship. MMSI: 431301641.

Date/timePositionNaut miles runAvg speedWind from/ knotsBaromVisibWave heightAir tempDewpointWater temp
2017-Apr-24 09:49N 34°32' E 134°43'823.5
2017-Apr-24 09:30N 34°35' E 134°52'1122.5
2017-Apr-24 09:00N 34°36' E 135°05'1121.4
2017-Apr-24 08:30N 34°37' E 135°18'612.1
2017-Apr-24 08:00N 34°37' E 135°26'0 0.0
2017-Apr-24 07:30N 34°37' E 135°26'0 0.0
2017-Apr-24 06:54N 34°37' E 135°26'0 0.0
2017-Apr-24 06:30N 34°37' E 135°26'0 0.0
2017-Apr-24 06:00N 34°37' E 135°26'0 0.0
2017-Apr-24 05:30N 34°37' E 135°26'0 0.0
2017-Apr-24 05:00N 34°37' E 135°26'0 0.0
2017-Apr-24 04:30N 34°37' E 135°26'0 0.0
2017-Apr-24 04:00N 34°37' E 135°26'0 0.0
2017-Apr-24 03:24N 34°37' E 135°26'0 0.0
2017-Apr-24 02:48N 34°37' E 135°26'0 0.0
2017-Apr-24 02:30N 34°37' E 135°26'0 0.0
2017-Apr-24 01:48N 34°37' E 135°26'0 0.0
2017-Apr-24 01:30N 34°37' E 135°26'0 0.0
2017-Apr-24 00:42N 34°37' E 135°26'0 0.0
2017-Apr-24 00:24N 34°37' E 135°26'0 0.0
2017-Apr-24 00:00N 34°37' E 135°26'0 0.0
2017-Apr-23 23:24N 34°37' E 135°26'0 0.0
2017-Apr-23 23:00N 34°37' E 135°26'0 0.0
2017-Apr-23 22:30N 34°37' E 135°26'0 0.0
2017-Apr-23 22:00N 34°37' E 135°26'0 0.0
2017-Apr-23 21:18N 34°37' E 135°26'0 0.0
2017-Apr-23 21:00N 34°37' E 135°26'0 0.0
2017-Apr-23 20:30N 34°37' E 135°26'4 7.6
2017-Apr-23 20:00N 34°37' E 135°21'918.9
2017-Apr-23 19:30N 34°35' E 135°10'918.5
2017-Apr-23 19:00N 34°37' E 134°59'1019.4
2017-Apr-23 18:30N 34°33' E 134°48'5 0.1
2017-Apr-22 09:52N 34°32' E 134°43'923.4
2017-Apr-22 09:30N 34°35' E 134°52'1122.1
2017-Apr-22 09:00N 34°36' E 135°06'1121.4
2017-Apr-22 08:29N 34°37' E 135°19'5 9.4
2017-Apr-22 07:55N 34°37' E 135°26'0 0.0
2017-Apr-22 07:07N 34°37' E 135°26'0 0.0
2017-Apr-22 06:49N 34°37' E 135°26'0 0.0
2017-Apr-22 06:25N 34°37' E 135°26'0 0.0
2017-Apr-22 05:49N 34°37' E 135°26'0 0.0
2017-Apr-22 05:25N 34°37' E 135°26'0 0.0
2017-Apr-22 04:55N 34°37' E 135°26'0 0.0
2017-Apr-22 04:25N 34°37' E 135°26'0 0.0
2017-Apr-22 03:55N 34°37' E 135°26'0 0.0
2017-Apr-22 03:19N 34°37' E 135°26'0 0.0
2017-Apr-22 02:55N 34°37' E 135°26'0 0.0
2017-Apr-22 02:25N 34°37' E 135°26'0 0.0
2017-Apr-22 01:55N 34°37' E 135°26'0 0.0
2017-Apr-22 01:25N 34°37' E 135°26'0 0.0
2017-Apr-22 00:55N 34°37' E 135°26'0 0.0
2017-Apr-22 00:25N 34°37' E 135°26'0 0.0
2017-Apr-21 23:55N 34°37' E 135°26'0 0.0
2017-Apr-21 23:25N 34°37' E 135°26'0 0.0
2017-Apr-21 22:31N 34°37' E 135°26'0 0.0
2017-Apr-21 22:13N 34°37' E 135°26'0 0.0
2017-Apr-21 21:25N 34°37' E 135°26'0 0.0
2017-Apr-21 20:49N 34°37' E 135°26'0 0.0
2017-Apr-21 20:30N 34°37' E 135°26'4 7.6
2017-Apr-21 20:00N 34°37' E 135°21'918.4
2017-Apr-21 19:30N 34°35' E 135°10'918.7
2017-Apr-21 19:00N 34°37' E 134°59'1121.4
2017-Apr-21 18:30N 34°33' E 134°48'3 0.1
2017-Apr-20 10:10N 34°32' E 134°44'422.5
2017-Apr-20 10:00N 34°34' E 134°49'1121.8
2017-Apr-20 09:30N 34°37' E 135°01'1121.0
2017-Apr-20 09:00N 34°36' E 135°14'918.0
2017-Apr-20 08:30N 34°37' E 135°25'1 1.4
2017-Apr-20 07:49N 34°37' E 135°26'0 0.0
2017-Apr-20 07:19N 34°37' E 135°26'0 0.0
2017-Apr-20 06:55N 34°37' E 135°26'0 0.0
2017-Apr-20 06:25N 34°37' E 135°26'0 0.0
2017-Apr-20 05:55N 34°37' E 135°26'0 0.0
2017-Apr-20 05:25N 34°37' E 135°26'0 0.0
2017-Apr-20 04:55N 34°37' E 135°26'0 0.0
2017-Apr-20 04:25N 34°37' E 135°26'0 0.0
2017-Apr-20 03:49N 34°37' E 135°26'0 0.0
2017-Apr-20 03:25N 34°37' E 135°26'0 0.0
2017-Apr-20 02:49N 34°37' E 135°26'0 0.0
2017-Apr-20 02:25N 34°37' E 135°26'0 0.0
2017-Apr-20 01:55N 34°37' E 135°26'0 0.0
2017-Apr-20 01:19N 34°37' E 135°26'0 0.0
2017-Apr-20 00:55N 34°37' E 135°26'0 0.0
2017-Apr-20 00:25N 34°37' E 135°26'0 0.0
2017-Apr-19 23:49N 34°37' E 135°26'0 0.0
2017-Apr-19 23:25N 34°37' E 135°26'0 0.0
2017-Apr-19 22:55N 34°37' E 135°26'0 0.0
2017-Apr-19 22:19N 34°37' E 135°26'0 0.0
2017-Apr-19 21:55N 34°37' E 135°26'0 0.0
2017-Apr-19 21:25N 34°37' E 135°26'0 0.0
2017-Apr-19 20:55N 34°37' E 135°26'0 0.0
2017-Apr-19 20:30N 34°37' E 135°26'510.4
2017-Apr-19 20:00N 34°36' E 135°20'1020.7
2017-Apr-19 19:30N 34°35' E 135°07'918.5
2017-Apr-19 19:00N 34°35' E 134°56'9 0.3
2017-Apr-18 09:59N 34°33' E 134°45'1020.6
2017-Apr-18 09:30N 34°37' E 134°56'1019.4
2017-Apr-18 09:01N 34°36' E 135°08'1020.6
2017-Apr-18 08:30N 34°37' E 135°20'5 7.6
2017-Apr-18 07:54N 34°37' E 135°26'0 0.0
2017-Apr-18 07:30N 34°37' E 135°26'0 0.0
2017-Apr-18 07:00N 34°37' E 135°26'0 0.0
2017-Apr-18 06:30N 34°37' E 135°26'0 0.0
2017-Apr-18 06:00N 34°37' E 135°26'0 0.0
2017-Apr-18 05:24N 34°37' E 135°26'0 0.0
2017-Apr-18 05:00N 34°37' E 135°26'0 0.0
2017-Apr-18 04:30N 34°37' E 135°26'0 0.0
2017-Apr-18 03:54N 34°37' E 135°26'0 0.0
2017-Apr-18 03:30N 34°37' E 135°26'0 0.0
2017-Apr-18 02:48N 34°37' E 135°26'0 0.0
2017-Apr-18 02:18N 34°37' E 135°26'0 0.0
2017-Apr-18 02:00N 34°37' E 135°26'0 0.0
2017-Apr-18 01:30N 34°37' E 135°26'0 0.0
2017-Apr-18 01:00N 34°37' E 135°26'0 0.0
2017-Apr-18 00:24N 34°37' E 135°26'0 0.0
2017-Apr-18 00:00N 34°37' E 135°26'0 0.0
2017-Apr-17 23:30N 34°37' E 135°26'0 0.0
2017-Apr-17 23:00N 34°37' E 135°26'0 0.0
2017-Apr-17 22:24N 34°37' E 135°26'0 0.0
2017-Apr-17 21:54N 34°37' E 135°26'0 0.0
2017-Apr-17 21:24N 34°37' E 135°26'0 0.0
2017-Apr-17 21:00N 34°37' E 135°26'0 0.0
2017-Apr-17 20:30N 34°37' E 135°26'4 7.8
2017-Apr-17 20:00N 34°37' E 135°21'1020.2
2017-Apr-17 19:30N 34°35' E 135°09'1020.0
2017-Apr-17 19:00N 34°36' E 134°57'6 0.2
2017-Apr-16 09:45N 34°34' E 134°50'521.3
2017-Apr-16 09:30N 34°36' E 134°56'917.4
2017-Apr-16 09:00N 34°36' E 135°06'1121.1
2017-Apr-16 08:30N 34°37' E 135°19'610.7
2017-Apr-16 07:58N 34°37' E 135°26'0 0.0
2017-Apr-16 07:28N 34°37' E 135°26'0 0.0
2017-Apr-16 06:58N 34°37' E 135°26'0 0.0
2017-Apr-16 06:28N 34°37' E 135°26'0 0.0
2017-Apr-16 05:58N 34°37' E 135°26'0 0.0
2017-Apr-16 05:28N 34°37' E 135°26'0 0.0
2017-Apr-16 04:58N 34°37' E 135°26'0 0.0
2017-Apr-16 04:28N 34°37' E 135°26'0 0.0
2017-Apr-16 03:58N 34°37' E 135°26'0 0.0
2017-Apr-16 03:28N 34°37' E 135°26'0 0.0
2017-Apr-16 02:58N 34°37' E 135°26'0 0.0
2017-Apr-16 02:28N 34°37' E 135°26'0 0.0
2017-Apr-16 01:58N 34°37' E 135°26'0 0.0
2017-Apr-16 01:28N 34°37' E 135°26'0 0.0
2017-Apr-16 00:58N 34°37' E 135°26'0 0.0
2017-Apr-16 00:16N 34°37' E 135°26'0 0.0
2017-Apr-15 23:58N 34°37' E 135°26'0 0.0
2017-Apr-15 23:28N 34°37' E 135°26'0 0.0
2017-Apr-15 22:58N 34°37' E 135°26'0 0.0
2017-Apr-15 22:28N 34°37' E 135°26'0 0.0
2017-Apr-15 21:58N 34°37' E 135°26'0 0.0
2017-Apr-15 21:28N 34°37' E 135°26'0 0.0
2017-Apr-15 20:58N 34°37' E 135°26'0 0.0
2017-Apr-15 20:23N 34°37' E 135°26'4 9.8
2017-Apr-15 20:00N 34°37' E 135°21'1019.2
2017-Apr-15 19:30N 34°35' E 135°10'1019.8
2017-Apr-15 19:00N 34°37' E 134°58'12 0.4
2017-Apr-14 09:54N 34°32' E 134°45'  

Dump ship's entire track history